sensor_id;sensor_type;location;lat;lon;timestamp;temperature;humidity
68139;DHT22;54940;50.842;4.410;2022-08-19T00:02:04;21.60;99.60
68139;DHT22;54940;50.842;4.410;2022-08-19T00:04:32;21.60;99.60
68139;DHT22;54940;50.842;4.410;2022-08-19T00:07:00;21.50;99.90
68139;DHT22;54940;50.842;4.410;2022-08-19T00:09:27;21.40;99.90
68139;DHT22;54940;50.842;4.410;2022-08-19T00:11:56;21.50;99.90
68139;DHT22;54940;50.842;4.410;2022-08-19T00:14:23;21.50;99.90
68139;DHT22;54940;50.842;4.410;2022-08-19T00:16:49;21.40;99.90
68139;DHT22;54940;50.842;4.410;2022-08-19T00:19:19;21.40;99.90
68139;DHT22;54940;50.842;4.410;2022-08-19T00:21:45;21.30;99.90
68139;DHT22;54940;50.842;4.410;2022-08-19T00:24:13;21.20;99.90
68139;DHT22;54940;50.842;4.410;2022-08-19T00:26:39;21.20;99.90
68139;DHT22;54940;50.842;4.410;2022-08-19T00:29:07;21.10;99.90
68139;DHT22;54940;50.842;4.410;2022-08-19T00:31:33;21.20;99.90
68139;DHT22;54940;50.842;4.410;2022-08-19T00:33:59;21.30;99.90
68139;DHT22;54940;50.842;4.410;2022-08-19T00:36:25;21.30;99.90
68139;DHT22;54940;50.842;4.410;2022-08-19T00:38:51;21.40;99.90
68139;DHT22;54940;50.842;4.410;2022-08-19T00:41:20;21.40;99.90
68139;DHT22;54940;50.842;4.410;2022-08-19T00:46:31;21.10;99.90
68139;DHT22;54940;50.842;4.410;2022-08-19T00:48:59;21.00;99.90
68139;DHT22;54940;50.842;4.410;2022-08-19T00:51:30;21.00;99.90
68139;DHT22;54940;50.842;4.410;2022-08-19T00:53:58;21.00;99.90
68139;DHT22;54940;50.842;4.410;2022-08-19T00:56:24;21.00;99.90
68139;DHT22;54940;50.842;4.410;2022-08-19T00:58:52;21.00;99.90
68139;DHT22;54940;50.842;4.410;2022-08-19T01:01:18;21.10;99.90
68139;DHT22;54940;50.842;4.410;2022-08-19T01:03:44;21.00;99.90
68139;DHT22;54940;50.842;4.410;2022-08-19T01:06:09;21.00;99.90
68139;DHT22;54940;50.842;4.410;2022-08-19T01:08:35;21.10;99.90
68139;DHT22;54940;50.842;4.410;2022-08-19T01:11:01;21.00;99.90
68139;DHT22;54940;50.842;4.410;2022-08-19T01:13:30;21.00;99.90
68139;DHT22;54940;50.842;4.410;2022-08-19T01:16:10;21.00;99.90
68139;DHT22;54940;50.842;4.410;2022-08-19T01:18:39;21.10;99.90
68139;DHT22;54940;50.842;4.410;2022-08-19T01:21:11;21.00;99.90
68139;DHT22;54940;50.842;4.410;2022-08-19T01:23:42;20.90;99.90
68139;DHT22;54940;50.842;4.410;2022-08-19T01:26:14;20.80;99.90
68139;DHT22;54940;50.842;4.410;2022-08-19T01:28:41;20.60;99.90
68139;DHT22;54940;50.842;4.410;2022-08-19T01:31:10;20.70;99.90
68139;DHT22;54940;50.842;4.410;2022-08-19T01:33:37;20.60;99.90
68139;DHT22;54940;50.842;4.410;2022-08-19T01:36:06;20.60;99.90
68139;DHT22;54940;50.842;4.410;2022-08-19T01:38:37;20.50;99.90
68139;DHT22;54940;50.842;4.410;2022-08-19T01:41:03;20.60;99.90
68139;DHT22;54940;50.842;4.410;2022-08-19T01:43:28;20.70;99.90
68139;DHT22;54940;50.842;4.410;2022-08-19T01:45:54;20.70;99.90
68139;DHT22;54940;50.842;4.410;2022-08-19T01:48:20;20.70;99.90
68139;DHT22;54940;50.842;4.410;2022-08-19T01:50:45;20.60;99.90
68139;DHT22;54940;50.842;4.410;2022-08-19T01:53:13;20.60;99.90
68139;DHT22;54940;50.842;4.410;2022-08-19T01:55:40;20.70;99.90
68139;DHT22;54940;50.842;4.410;2022-08-19T01:58:14;20.60;99.90
68139;DHT22;54940;50.842;4.410;2022-08-19T02:00:42;20.60;99.90
68139;DHT22;54940;50.842;4.410;2022-08-19T02:03:08;20.50;99.90
68139;DHT22;54940;50.842;4.410;2022-08-19T02:05:35;20.50;99.90
68139;DHT22;54940;50.842;4.410;2022-08-19T02:08:00;20.50;99.90
68139;DHT22;54940;50.842;4.410;2022-08-19T02:10:26;20.40;99.90
68139;DHT22;54940;50.842;4.410;2022-08-19T02:12:52;20.40;99.90
68139;DHT22;54940;50.842;4.410;2022-08-19T02:15:19;20.30;99.90
68139;DHT22;54940;50.842;4.410;2022-08-19T02:17:46;20.30;99.90
68139;DHT22;54940;50.842;4.410;2022-08-19T02:20:12;20.10;99.90
68139;DHT22;54940;50.842;4.410;2022-08-19T02:22:39;20.00;99.90
68139;DHT22;54940;50.842;4.410;2022-08-19T02:25:07;20.00;99.90
68139;DHT22;54940;50.842;4.410;2022-08-19T02:27:33;19.90;99.90
68139;DHT22;54940;50.842;4.410;2022-08-19T02:29:59;20.00;99.90
68139;DHT22;54940;50.842;4.410;2022-08-19T02:32:25;20.00;99.90
68139;DHT22;54940;50.842;4.410;2022-08-19T02:34:51;20.00;99.90
68139;DHT22;54940;50.842;4.410;2022-08-19T02:37:17;20.00;99.90
68139;DHT22;54940;50.842;4.410;2022-08-19T02:40:01;19.70;99.90
68139;DHT22;54940;50.842;4.410;2022-08-19T02:42:27;19.50;99.90
68139;DHT22;54940;50.842;4.410;2022-08-19T02:44:55;19.60;99.90
68139;DHT22;54940;50.842;4.410;2022-08-19T02:47:21;19.60;99.90
68139;DHT22;54940;50.842;4.410;2022-08-19T02:49:46;19.70;99.90
68139;DHT22;54940;50.842;4.410;2022-08-19T02:52:15;19.80;99.90
68139;DHT22;54940;50.842;4.410;2022-08-19T02:54:40;19.80;99.90
68139;DHT22;54940;50.842;4.410;2022-08-19T02:57:06;19.80;99.90
68139;DHT22;54940;50.842;4.410;2022-08-19T02:59:33;19.70;99.90
68139;DHT22;54940;50.842;4.410;2022-08-19T03:01:59;19.60;99.90
68139;DHT22;54940;50.842;4.410;2022-08-19T03:04:24;19.50;99.90
68139;DHT22;54940;50.842;4.410;2022-08-19T03:06:50;19.50;99.90
68139;DHT22;54940;50.842;4.410;2022-08-19T03:09:18;19.50;99.90
68139;DHT22;54940;50.842;4.410;2022-08-19T03:11:44;19.50;99.90
68139;DHT22;54940;50.842;4.410;2022-08-19T03:14:11;19.50;99.90
68139;DHT22;54940;50.842;4.410;2022-08-19T03:16:43;19.60;99.90
68139;DHT22;54940;50.842;4.410;2022-08-19T03:19:09;19.50;99.90
68139;DHT22;54940;50.842;4.410;2022-08-19T03:21:34;19.50;99.90
68139;DHT22;54940;50.842;4.410;2022-08-19T03:24:04;19.40;99.90
68139;DHT22;54940;50.842;4.410;2022-08-19T03:26:30;19.40;99.90
68139;DHT22;54940;50.842;4.410;2022-08-19T03:28:56;19.30;99.90
68139;DHT22;54940;50.842;4.410;2022-08-19T03:31:23;19.40;99.90
68139;DHT22;54940;50.842;4.410;2022-08-19T03:33:50;19.30;99.90
68139;DHT22;54940;50.842;4.410;2022-08-19T03:36:19;19.20;99.90
68139;DHT22;54940;50.842;4.410;2022-08-19T03:38:48;19.20;99.90
68139;DHT22;54940;50.842;4.410;2022-08-19T03:41:18;19.20;99.90
68139;DHT22;54940;50.842;4.410;2022-08-19T03:43:44;19.30;99.90
68139;DHT22;54940;50.842;4.410;2022-08-19T03:46:18;19.10;99.90
68139;DHT22;54940;50.842;4.410;2022-08-19T03:48:48;19.00;99.90
68139;DHT22;54940;50.842;4.410;2022-08-19T03:51:26;19.00;99.90
68139;DHT22;54940;50.842;4.410;2022-08-19T03:53:54;19.00;99.90
68139;DHT22;54940;50.842;4.410;2022-08-19T03:56:20;18.90;99.90
68139;DHT22;54940;50.842;4.410;2022-08-19T03:58:46;18.80;99.90
68139;DHT22;54940;50.842;4.410;2022-08-19T04:01:16;18.90;99.90
68139;DHT22;54940;50.842;4.410;2022-08-19T04:03:43;19.00;99.90
68139;DHT22;54940;50.842;4.410;2022-08-19T04:06:15;18.80;99.90
68139;DHT22;54940;50.842;4.410;2022-08-19T04:08:42;18.80;99.90
68139;DHT22;54940;50.842;4.410;2022-08-19T04:11:13;18.80;99.90
68139;DHT22;54940;50.842;4.410;2022-08-19T04:13:40;18.80;99.90
68139;DHT22;54940;50.842;4.410;2022-08-19T04:16:08;18.80;99.90
68139;DHT22;54940;50.842;4.410;2022-08-19T04:18:36;18.70;99.90
68139;DHT22;54940;50.842;4.410;2022-08-19T04:21:03;18.70;99.90
68139;DHT22;54940;50.842;4.410;2022-08-19T04:23:29;18.70;99.90
68139;DHT22;54940;50.842;4.410;2022-08-19T04:25:55;18.70;99.90
68139;DHT22;54940;50.842;4.410;2022-08-19T04:28:22;18.70;99.90
68139;DHT22;54940;50.842;4.410;2022-08-19T04:30:50;18.60;99.90
68139;DHT22;54940;50.842;4.410;2022-08-19T04:33:18;18.40;99.90
68139;DHT22;54940;50.842;4.410;2022-08-19T04:35:47;18.30;99.90
68139;DHT22;54940;50.842;4.410;2022-08-19T04:38:18;18.40;99.90
68139;DHT22;54940;50.842;4.410;2022-08-19T04:40:46;18.50;99.90
68139;DHT22;54940;50.842;4.410;2022-08-19T04:43:32;18.70;99.90
68139;DHT22;54940;50.842;4.410;2022-08-19T04:46:04;18.80;99.90
68139;DHT22;54940;50.842;4.410;2022-08-19T04:48:30;18.70;99.90
68139;DHT22;54940;50.842;4.410;2022-08-19T04:50:57;18.60;99.90
68139;DHT22;54940;50.842;4.410;2022-08-19T04:53:28;18.70;99.90
68139;DHT22;54940;50.842;4.410;2022-08-19T04:55:59;18.80;99.90
68139;DHT22;54940;50.842;4.410;2022-08-19T04:58:27;18.70;99.90
68139;DHT22;54940;50.842;4.410;2022-08-19T05:00:53;18.70;99.90
68139;DHT22;54940;50.842;4.410;2022-08-19T05:03:20;18.70;99.90
68139;DHT22;54940;50.842;4.410;2022-08-19T05:05:47;18.80;99.90
68139;DHT22;54940;50.842;4.410;2022-08-19T05:08:18;18.70;99.90
68139;DHT22;54940;50.842;4.410;2022-08-19T05:10:49;18.60;99.90
68139;DHT22;54940;50.842;4.410;2022-08-19T05:13:16;18.50;99.90
68139;DHT22;54940;50.842;4.410;2022-08-19T05:15:42;18.60;99.90
68139;DHT22;54940;50.842;4.410;2022-08-19T05:18:09;18.60;99.90
68139;DHT22;54940;50.842;4.410;2022-08-19T05:20:54;18.70;99.90
68139;DHT22;54940;50.842;4.410;2022-08-19T05:23:39;18.80;99.90
68139;DHT22;54940;50.842;4.410;2022-08-19T05:26:04;18.80;99.90
68139;DHT22;54940;50.842;4.410;2022-08-19T05:28:30;18.80;99.90
68139;DHT22;54940;50.842;4.410;2022-08-19T05:30:56;19.00;99.90
68139;DHT22;54940;50.842;4.410;2022-08-19T05:33:22;19.20;99.90
68139;DHT22;54940;50.842;4.410;2022-08-19T05:35:49;19.30;99.90
68139;DHT22;54940;50.842;4.410;2022-08-19T05:38:17;19.50;99.90
68139;DHT22;54940;50.842;4.410;2022-08-19T05:40:43;19.50;99.90
68139;DHT22;54940;50.842;4.410;2022-08-19T05:43:13;19.60;99.90
68139;DHT22;54940;50.842;4.410;2022-08-19T05:45:42;19.70;99.90
68139;DHT22;54940;50.842;4.410;2022-08-19T05:48:09;19.70;99.90
68139;DHT22;54940;50.842;4.410;2022-08-19T05:50:38;20.00;99.90
68139;DHT22;54940;50.842;4.410;2022-08-19T05:53:04;20.20;99.90
68139;DHT22;54940;50.842;4.410;2022-08-19T05:55:31;20.20;99.90
68139;DHT22;54940;50.842;4.410;2022-08-19T05:57:56;20.10;99.90
68139;DHT22;54940;50.842;4.410;2022-08-19T06:00:22;20.00;99.90
68139;DHT22;54940;50.842;4.410;2022-08-19T06:02:48;19.60;99.90
68139;DHT22;54940;50.842;4.410;2022-08-19T06:05:14;19.60;99.90
68139;DHT22;54940;50.842;4.410;2022-08-19T06:07:40;19.50;99.90
68139;DHT22;54940;50.842;4.410;2022-08-19T06:10:09;19.50;99.90
68139;DHT22;54940;50.842;4.410;2022-08-19T06:12:35;19.50;99.90
68139;DHT22;54940;50.842;4.410;2022-08-19T06:15:07;19.50;99.90
68139;DHT22;54940;50.842;4.410;2022-08-19T06:17:34;19.40;99.90
68139;DHT22;54940;50.842;4.410;2022-08-19T06:20:01;19.80;99.90
68139;DHT22;54940;50.842;4.410;2022-08-19T06:22:27;20.60;99.90
68139;DHT22;54940;50.842;4.410;2022-08-19T06:24:53;21.20;99.90
68139;DHT22;54940;50.842;4.410;2022-08-19T06:27:20;21.10;99.90
68139;DHT22;54940;50.842;4.410;2022-08-19T06:29:46;20.80;99.90
68139;DHT22;54940;50.842;4.410;2022-08-19T06:32:15;20.40;99.90
68139;DHT22;54940;50.842;4.410;2022-08-19T06:34:42;20.20;99.90
68139;DHT22;54940;50.842;4.410;2022-08-19T06:37:08;20.10;99.90
68139;DHT22;54940;50.842;4.410;2022-08-19T06:39:38;20.10;99.90
68139;DHT22;54940;50.842;4.410;2022-08-19T06:42:06;20.10;99.90
68139;DHT22;54940;50.842;4.410;2022-08-19T06:44:35;20.30;99.90
68139;DHT22;54940;50.842;4.410;2022-08-19T06:47:06;20.20;99.90
68139;DHT22;54940;50.842;4.410;2022-08-19T06:49:32;20.20;99.90
68139;DHT22;54940;50.842;4.410;2022-08-19T06:51:58;20.20;99.90
68139;DHT22;54940;50.842;4.410;2022-08-19T06:54:25;20.20;99.90
68139;DHT22;54940;50.842;4.410;2022-08-19T06:56:51;20.20;99.90
68139;DHT22;54940;50.842;4.410;2022-08-19T06:59:20;20.10;99.90
68139;DHT22;54940;50.842;4.410;2022-08-19T07:01:51;20.10;99.90
68139;DHT22;54940;50.842;4.410;2022-08-19T07:04:23;20.20;99.90
68139;DHT22;54940;50.842;4.410;2022-08-19T07:06:50;20.40;99.90
68139;DHT22;54940;50.842;4.410;2022-08-19T07:09:21;20.40;99.90
68139;DHT22;54940;50.842;4.410;2022-08-19T07:11:49;20.30;99.90
68139;DHT22;54940;50.842;4.410;2022-08-19T07:14:16;20.30;99.90
68139;DHT22;54940;50.842;4.410;2022-08-19T07:16:44;20.30;99.90
68139;DHT22;54940;50.842;4.410;2022-08-19T07:19:12;20.30;99.90
68139;DHT22;54940;50.842;4.410;2022-08-19T07:21:38;20.40;99.90
68139;DHT22;54940;50.842;4.410;2022-08-19T07:24:04;20.30;99.90
68139;DHT22;54940;50.842;4.410;2022-08-19T07:26:33;20.40;99.90
68139;DHT22;54940;50.842;4.410;2022-08-19T07:29:04;20.50;99.90
68139;DHT22;54940;50.842;4.410;2022-08-19T07:31:30;20.80;99.90
68139;DHT22;54940;50.842;4.410;2022-08-19T07:33:56;20.80;99.90
68139;DHT22;54940;50.842;4.410;2022-08-19T07:36:27;20.70;99.90
68139;DHT22;54940;50.842;4.410;2022-08-19T07:38:59;20.70;99.90
68139;DHT22;54940;50.842;4.410;2022-08-19T07:41:27;20.50;99.90
68139;DHT22;54940;50.842;4.410;2022-08-19T07:44:00;20.40;99.90
68139;DHT22;54940;50.842;4.410;2022-08-19T07:46:33;20.40;99.90
68139;DHT22;54940;50.842;4.410;2022-08-19T07:48:59;20.50;99.90
68139;DHT22;54940;50.842;4.410;2022-08-19T07:51:26;20.70;99.90
68139;DHT22;54940;50.842;4.410;2022-08-19T07:53:52;21.00;99.90
68139;DHT22;54940;50.842;4.410;2022-08-19T07:56:19;21.10;99.90
68139;DHT22;54940;50.842;4.410;2022-08-19T07:58:47;21.20;99.90
68139;DHT22;54940;50.842;4.410;2022-08-19T08:01:24;21.20;99.90
68139;DHT22;54940;50.842;4.410;2022-08-19T08:03:51;21.30;99.90
68139;DHT22;54940;50.842;4.410;2022-08-19T08:06:36;21.60;99.90
68139;DHT22;54940;50.842;4.410;2022-08-19T08:09:25;22.30;99.90
68139;DHT22;54940;50.842;4.410;2022-08-19T08:11:57;22.30;99.90
68139;DHT22;54940;50.842;4.410;2022-08-19T08:14:30;22.10;99.90
68139;DHT22;54940;50.842;4.410;2022-08-19T08:16:57;21.90;99.90
68139;DHT22;54940;50.842;4.410;2022-08-19T08:19:25;21.90;99.90
68139;DHT22;54940;50.842;4.410;2022-08-19T08:21:52;21.90;99.90
68139;DHT22;54940;50.842;4.410;2022-08-19T08:24:18;21.90;99.90
68139;DHT22;54940;50.842;4.410;2022-08-19T08:26:45;21.80;99.90
68139;DHT22;54940;50.842;4.410;2022-08-19T08:29:11;21.90;99.90
68139;DHT22;54940;50.842;4.410;2022-08-19T08:31:41;21.90;99.90
68139;DHT22;54940;50.842;4.410;2022-08-19T08:34:08;21.90;99.90
68139;DHT22;54940;50.842;4.410;2022-08-19T08:36:37;21.80;99.90
68139;DHT22;54940;50.842;4.410;2022-08-19T08:39:08;21.80;99.90
68139;DHT22;54940;50.842;4.410;2022-08-19T08:41:58;21.70;99.90
68139;DHT22;54940;50.842;4.410;2022-08-19T08:44:37;21.80;99.90
68139;DHT22;54940;50.842;4.410;2022-08-19T08:47:11;21.70;99.90
68139;DHT22;54940;50.842;4.410;2022-08-19T08:49:55;21.60;99.90
68139;DHT22;54940;50.842;4.410;2022-08-19T08:52:33;21.50;99.90
68139;DHT22;54940;50.842;4.410;2022-08-19T08:55:07;21.50;99.90
68139;DHT22;54940;50.842;4.410;2022-08-19T09:00:27;21.80;99.90
68139;DHT22;54940;50.842;4.410;2022-08-19T09:02:55;21.70;99.90
68139;DHT22;54940;50.842;4.410;2022-08-19T09:05:23;21.60;99.90
68139;DHT22;54940;50.842;4.410;2022-08-19T09:10:38;21.80;99.90
68139;DHT22;54940;50.842;4.410;2022-08-19T09:15:44;21.70;99.90
68139;DHT22;54940;50.842;4.410;2022-08-19T09:18:11;21.60;99.90
68139;DHT22;54940;50.842;4.410;2022-08-19T09:20:37;21.60;99.90
68139;DHT22;54940;50.842;4.410;2022-08-19T09:23:03;21.60;99.90
68139;DHT22;54940;50.842;4.410;2022-08-19T09:25:29;21.70;99.90
68139;DHT22;54940;50.842;4.410;2022-08-19T09:27:57;21.70;99.90
68139;DHT22;54940;50.842;4.410;2022-08-19T09:30:29;21.50;99.90
68139;DHT22;54940;50.842;4.410;2022-08-19T09:32:55;21.60;99.90
68139;DHT22;54940;50.842;4.410;2022-08-19T09:35:23;21.70;99.90
68139;DHT22;54940;50.842;4.410;2022-08-19T09:37:50;21.80;99.90
68139;DHT22;54940;50.842;4.410;2022-08-19T09:40:17;21.80;99.90
68139;DHT22;54940;50.842;4.410;2022-08-19T09:42:44;21.80;99.90
68139;DHT22;54940;50.842;4.410;2022-08-19T09:45:12;21.90;99.90
68139;DHT22;54940;50.842;4.410;2022-08-19T09:47:38;21.90;99.90
68139;DHT22;54940;50.842;4.410;2022-08-19T09:50:05;22.00;99.90
68139;DHT22;54940;50.842;4.410;2022-08-19T09:52:31;22.00;99.90
68139;DHT22;54940;50.842;4.410;2022-08-19T09:54:57;22.00;99.90
68139;DHT22;54940;50.842;4.410;2022-08-19T09:57:22;22.00;99.90
68139;DHT22;54940;50.842;4.410;2022-08-19T09:59:48;22.00;99.90
68139;DHT22;54940;50.842;4.410;2022-08-19T10:02:14;22.00;99.90
68139;DHT22;54940;50.842;4.410;2022-08-19T10:04:39;22.10;99.90
68139;DHT22;54940;50.842;4.410;2022-08-19T10:07:23;22.20;99.90
68139;DHT22;54940;50.842;4.410;2022-08-19T10:09:49;22.10;99.90
68139;DHT22;54940;50.842;4.410;2022-08-19T10:12:15;22.10;99.90
68139;DHT22;54940;50.842;4.410;2022-08-19T10:14:41;22.10;99.90
68139;DHT22;54940;50.842;4.410;2022-08-19T10:17:07;22.10;99.90
68139;DHT22;54940;50.842;4.410;2022-08-19T10:19:33;22.10;99.90
68139;DHT22;54940;50.842;4.410;2022-08-19T10:22:05;22.20;99.90
68139;DHT22;54940;50.842;4.410;2022-08-19T10:24:33;22.30;99.90
68139;DHT22;54940;50.842;4.410;2022-08-19T10:26:59;22.40;99.90
68139;DHT22;54940;50.842;4.410;2022-08-19T10:29:26;22.50;99.90
68139;DHT22;54940;50.842;4.410;2022-08-19T10:31:53;22.60;99.90
68139;DHT22;54940;50.842;4.410;2022-08-19T10:34:19;22.60;99.90
68139;DHT22;54940;50.842;4.410;2022-08-19T10:36:45;22.60;99.90
68139;DHT22;54940;50.842;4.410;2022-08-19T10:39:11;22.50;99.90
68139;DHT22;54940;50.842;4.410;2022-08-19T10:41:38;22.60;99.90
68139;DHT22;54940;50.842;4.410;2022-08-19T10:44:07;22.60;99.90
68139;DHT22;54940;50.842;4.410;2022-08-19T10:46:37;22.50;99.90
68139;DHT22;54940;50.842;4.410;2022-08-19T10:49:04;22.50;99.90
68139;DHT22;54940;50.842;4.410;2022-08-19T10:51:31;22.50;99.90
68139;DHT22;54940;50.842;4.410;2022-08-19T10:54:17;22.50;99.90
68139;DHT22;54940;50.842;4.410;2022-08-19T10:56:43;22.50;99.90
68139;DHT22;54940;50.842;4.410;2022-08-19T10:59:28;22.40;99.90
68139;DHT22;54940;50.842;4.410;2022-08-19T11:01:59;22.40;99.90
68139;DHT22;54940;50.842;4.410;2022-08-19T11:04:26;22.30;99.90
68139;DHT22;54940;50.842;4.410;2022-08-19T11:06:51;22.50;99.90
68139;DHT22;54940;50.842;4.410;2022-08-19T11:09:20;22.60;99.90
68139;DHT22;54940;50.842;4.410;2022-08-19T11:11:46;22.60;99.90
68139;DHT22;54940;50.842;4.410;2022-08-19T11:14:16;22.70;99.90
68139;DHT22;54940;50.842;4.410;2022-08-19T11:16:43;22.70;99.90
68139;DHT22;54940;50.842;4.410;2022-08-19T11:19:10;22.30;99.90
68139;DHT22;54940;50.842;4.410;2022-08-19T11:21:39;22.30;99.90
68139;DHT22;54940;50.842;4.410;2022-08-19T11:24:14;22.50;99.90
68139;DHT22;54940;50.842;4.410;2022-08-19T11:26:42;22.50;99.90
68139;DHT22;54940;50.842;4.410;2022-08-19T11:29:09;22.60;99.90
68139;DHT22;54940;50.842;4.410;2022-08-19T11:31:41;22.60;99.90
68139;DHT22;54940;50.842;4.410;2022-08-19T11:34:11;22.30;99.90
68139;DHT22;54940;50.842;4.410;2022-08-19T11:36:40;22.30;99.90
68139;DHT22;54940;50.842;4.410;2022-08-19T11:39:07;22.30;99.90
68139;DHT22;54940;50.842;4.410;2022-08-19T11:41:33;22.20;99.90
68139;DHT22;54940;50.842;4.410;2022-08-19T11:43:59;22.20;99.90
68139;DHT22;54940;50.842;4.410;2022-08-19T11:46:26;22.20;99.90
68139;DHT22;54940;50.842;4.410;2022-08-19T11:48:58;22.40;99.90
68139;DHT22;54940;50.842;4.410;2022-08-19T11:51:28;22.40;99.90
68139;DHT22;54940;50.842;4.410;2022-08-19T11:53:56;22.30;99.90
68139;DHT22;54940;50.842;4.410;2022-08-19T11:56:22;22.30;99.90
68139;DHT22;54940;50.842;4.410;2022-08-19T11:58:49;22.40;99.90
68139;DHT22;54940;50.842;4.410;2022-08-19T12:01:17;22.30;99.90
68139;DHT22;54940;50.842;4.410;2022-08-19T12:03:44;22.40;99.90
68139;DHT22;54940;50.842;4.410;2022-08-19T12:06:16;22.60;99.90
68139;DHT22;54940;50.842;4.410;2022-08-19T12:08:42;22.80;99.90
68139;DHT22;54940;50.842;4.410;2022-08-19T12:11:09;23.10;99.90
68139;DHT22;54940;50.842;4.410;2022-08-19T12:13:37;23.40;99.90
68139;DHT22;54940;50.842;4.410;2022-08-19T12:16:11;23.70;99.90
68139;DHT22;54940;50.842;4.410;2022-08-19T12:18:39;23.70;99.90
68139;DHT22;54940;50.842;4.410;2022-08-19T12:21:08;23.90;99.90
68139;DHT22;54940;50.842;4.410;2022-08-19T12:23:35;24.00;99.90
68139;DHT22;54940;50.842;4.410;2022-08-19T12:26:02;24.20;99.90
68139;DHT22;54940;50.842;4.410;2022-08-19T12:28:28;24.30;99.90
68139;DHT22;54940;50.842;4.410;2022-08-19T12:30:55;24.30;99.90
68139;DHT22;54940;50.842;4.410;2022-08-19T12:33:21;24.20;99.90
68139;DHT22;54940;50.842;4.410;2022-08-19T12:35:50;24.20;99.90
68139;DHT22;54940;50.842;4.410;2022-08-19T12:38:17;24.10;99.90
68139;DHT22;54940;50.842;4.410;2022-08-19T12:40:45;24.20;99.90
68139;DHT22;54940;50.842;4.410;2022-08-19T12:43:12;24.20;99.90
68139;DHT22;54940;50.842;4.410;2022-08-19T12:45:39;24.10;99.90
68139;DHT22;54940;50.842;4.410;2022-08-19T12:48:05;24.10;99.90
68139;DHT22;54940;50.842;4.410;2022-08-19T12:50:31;24.10;99.90
68139;DHT22;54940;50.842;4.410;2022-08-19T12:52:57;23.90;99.90
68139;DHT22;54940;50.842;4.410;2022-08-19T12:55:23;24.00;99.90
68139;DHT22;54940;50.842;4.410;2022-08-19T12:57:50;24.00;99.90
68139;DHT22;54940;50.842;4.410;2022-08-19T13:00:20;24.20;99.90
68139;DHT22;54940;50.842;4.410;2022-08-19T13:02:48;24.20;99.90
68139;DHT22;54940;50.842;4.410;2022-08-19T13:05:18;24.50;99.90
68139;DHT22;54940;50.842;4.410;2022-08-19T13:07:46;24.50;99.90
68139;DHT22;54940;50.842;4.410;2022-08-19T13:10:16;24.50;99.90
68139;DHT22;54940;50.842;4.410;2022-08-19T13:12:44;24.90;99.90
68139;DHT22;54940;50.842;4.410;2022-08-19T13:15:10;25.40;99.90
68139;DHT22;54940;50.842;4.410;2022-08-19T13:17:37;25.40;98.40
68139;DHT22;54940;50.842;4.410;2022-08-19T13:20:03;25.20;98.30
68139;DHT22;54940;50.842;4.410;2022-08-19T13:22:31;25.00;98.30
68139;DHT22;54940;50.842;4.410;2022-08-19T13:24:57;24.90;99.90
68139;DHT22;54940;50.842;4.410;2022-08-19T13:27:22;24.90;98.50
68139;DHT22;54940;50.842;4.410;2022-08-19T13:29:48;24.90;98.70
68139;DHT22;54940;50.842;4.410;2022-08-19T13:32:32;24.80;98.90
68139;DHT22;54940;50.842;4.410;2022-08-19T13:35:16;24.80;98.40
68139;DHT22;54940;50.842;4.410;2022-08-19T13:37:42;24.80;98.60
68139;DHT22;54940;50.842;4.410;2022-08-19T13:40:12;24.70;99.70
68139;DHT22;54940;50.842;4.410;2022-08-19T13:42:41;24.80;98.60
68139;DHT22;54940;50.842;4.410;2022-08-19T13:45:07;24.90;99.60
68139;DHT22;54940;50.842;4.410;2022-08-19T13:47:34;25.00;99.00
68139;DHT22;54940;50.842;4.410;2022-08-19T13:50:02;25.10;99.40
68139;DHT22;54940;50.842;4.410;2022-08-19T13:52:28;25.30;98.60
68139;DHT22;54940;50.842;4.410;2022-08-19T13:54:53;25.40;98.70
68139;DHT22;54940;50.842;4.410;2022-08-19T13:57:19;25.30;97.70
68139;DHT22;54940;50.842;4.410;2022-08-19T13:59:45;25.30;97.60
68139;DHT22;54940;50.842;4.410;2022-08-19T14:02:10;25.20;99.50
68139;DHT22;54940;50.842;4.410;2022-08-19T14:04:36;25.20;98.30
68139;DHT22;54940;50.842;4.410;2022-08-19T14:07:03;25.00;97.70
68139;DHT22;54940;50.842;4.410;2022-08-19T14:09:29;24.80;98.60
68139;DHT22;54940;50.842;4.410;2022-08-19T14:11:55;24.60;98.80
68139;DHT22;54940;50.842;4.410;2022-08-19T14:14:20;24.50;99.20
68139;DHT22;54940;50.842;4.410;2022-08-19T14:16:47;24.30;99.90
68139;DHT22;54940;50.842;4.410;2022-08-19T14:19:13;24.20;99.90
68139;DHT22;54940;50.842;4.410;2022-08-19T14:21:39;24.10;99.90
68139;DHT22;54940;50.842;4.410;2022-08-19T14:24:07;23.90;99.90
68139;DHT22;54940;50.842;4.410;2022-08-19T14:26:32;23.80;99.90
68139;DHT22;54940;50.842;4.410;2022-08-19T14:28:58;23.70;99.90
68139;DHT22;54940;50.842;4.410;2022-08-19T14:31:24;23.70;99.90
68139;DHT22;54940;50.842;4.410;2022-08-19T14:33:51;23.90;99.90
68139;DHT22;54940;50.842;4.410;2022-08-19T14:36:17;23.90;99.90
68139;DHT22;54940;50.842;4.410;2022-08-19T14:38:44;23.90;99.90
68139;DHT22;54940;50.842;4.410;2022-08-19T14:41:22;23.80;99.90
68139;DHT22;54940;50.842;4.410;2022-08-19T14:43:49;23.60;99.90
68139;DHT22;54940;50.842;4.410;2022-08-19T14:46:23;23.60;99.90
68139;DHT22;54940;50.842;4.410;2022-08-19T14:48:50;23.60;99.90
68139;DHT22;54940;50.842;4.410;2022-08-19T14:51:16;23.40;99.90
68139;DHT22;54940;50.842;4.410;2022-08-19T14:53:42;23.30;99.90
68139;DHT22;54940;50.842;4.410;2022-08-19T14:56:14;23.00;99.90
68139;DHT22;54940;50.842;4.410;2022-08-19T14:58:41;23.00;99.90
68139;DHT22;54940;50.842;4.410;2022-08-19T15:01:08;23.10;99.90
68139;DHT22;54940;50.842;4.410;2022-08-19T15:03:34;23.20;99.90
68139;DHT22;54940;50.842;4.410;2022-08-19T15:06:01;23.40;99.90
68139;DHT22;54940;50.842;4.410;2022-08-19T15:08:28;23.60;99.90
68139;DHT22;54940;50.842;4.410;2022-08-19T15:10:55;23.70;99.90
68139;DHT22;54940;50.842;4.410;2022-08-19T15:13:21;23.90;99.90
68139;DHT22;54940;50.842;4.410;2022-08-19T15:15:47;23.90;99.90
68139;DHT22;54940;50.842;4.410;2022-08-19T15:18:14;23.70;99.90
68139;DHT22;54940;50.842;4.410;2022-08-19T15:20:39;23.70;99.90
68139;DHT22;54940;50.842;4.410;2022-08-19T15:23:07;23.70;99.90
68139;DHT22;54940;50.842;4.410;2022-08-19T15:25:32;23.80;99.90
68139;DHT22;54940;50.842;4.410;2022-08-19T15:27:59;23.80;99.90
68139;DHT22;54940;50.842;4.410;2022-08-19T15:30:27;24.00;99.90
68139;DHT22;54940;50.842;4.410;2022-08-19T15:32:54;23.90;99.90
68139;DHT22;54940;50.842;4.410;2022-08-19T15:35:22;24.00;99.90
68139;DHT22;54940;50.842;4.410;2022-08-19T15:37:52;24.00;99.90
68139;DHT22;54940;50.842;4.410;2022-08-19T15:40:19;23.90;99.90
68139;DHT22;54940;50.842;4.410;2022-08-19T15:42:45;23.80;99.90
68139;DHT22;54940;50.842;4.410;2022-08-19T15:45:13;23.80;99.90
68139;DHT22;54940;50.842;4.410;2022-08-19T15:47:39;23.70;99.90